Terminal Aerodrome Forecast
Issued by NWS Detroit/Pontiac, MI

Home | Current Version | Previous Version | Text Only | Print | Product List | Glossary On
Versions: 1 2 3 4 5 6 7 8 9 10 11 12 13 14 15 16 17 18 19
000
FTUS43 KDTX 251945 AAA
TAFFNT
TAF AMD
KFNT 251945Z 2520/2618 34008KT 4SM BR OVC006
     FM252100 33006KT 6SM -SHRA BR SCT006 BKN012
     FM260100 31005KT P6SM OVC006
     FM261400 29006KT P6SM OVC015=

USA.gov is the U.S. government's official web portal to all federal, state and local government web resources and services.